createdAt,value
2023-03-08T00:02:27.809Z,98468.00
2023-03-08T00:04:55.770Z,98477.00
2023-03-08T00:07:26.525Z,98477.00
2023-03-08T00:09:54.307Z,98483.00
2023-03-08T00:12:23.051Z,98488.00
2023-03-08T00:14:53.278Z,98486.00
2023-03-08T00:17:21.243Z,98474.00
2023-03-08T00:19:51.175Z,98477.00
2023-03-08T00:22:19.095Z,98485.00
2023-03-08T00:24:46.831Z,98489.00
2023-03-08T00:27:14.593Z,98488.00
2023-03-08T00:29:42.323Z,98498.00
2023-03-08T00:32:10.144Z,98498.00
2023-03-08T00:34:38.159Z,98514.00
2023-03-08T00:37:06.053Z,98505.00
2023-03-08T00:39:33.701Z,98505.00
2023-03-08T00:42:01.275Z,98507.00
2023-03-08T00:44:29.207Z,98507.00
2023-03-08T00:46:56.946Z,98512.00
2023-03-08T00:49:24.641Z,98520.00
2023-03-08T00:51:52.374Z,98506.00
2023-03-08T00:54:20.201Z,98508.00
2023-03-08T00:56:48.182Z,98519.00
2023-03-08T00:59:15.716Z,98508.00
2023-03-08T01:01:43.599Z,98521.00
2023-03-08T01:04:11.296Z,98515.00
2023-03-08T01:06:39.563Z,98517.00
2023-03-08T01:09:11.323Z,98514.00
2023-03-08T01:11:40.295Z,98523.00
2023-03-08T01:14:10.682Z,98528.00
2023-03-08T01:16:38.270Z,98526.00
2023-03-08T01:19:05.910Z,98527.00
2023-03-08T01:21:33.687Z,98523.00
2023-03-08T01:24:01.782Z,98522.00
2023-03-08T01:26:29.501Z,98525.00
2023-03-08T01:28:57.300Z,98526.00
2023-03-08T01:31:25.989Z,98526.00
2023-03-08T01:33:55.059Z,98517.00
2023-03-08T01:36:23.909Z,98514.00
2023-03-08T01:38:51.792Z,98511.00
2023-03-08T01:41:21.558Z,98519.00
2023-03-08T01:43:50.707Z,98513.00
2023-03-08T01:46:31.122Z,98511.00
2023-03-08T01:49:26.191Z,98510.00
2023-03-08T01:52:04.155Z,98506.00
2023-03-08T01:54:35.113Z,98510.00
2023-03-08T01:57:04.310Z,98497.00
2023-03-08T01:59:32.905Z,98502.00
2023-03-08T05:03:27.744Z,98446.00
2023-03-08T05:05:55.997Z,98450.00
2023-03-08T05:08:24.727Z,98447.00
2023-03-08T05:11:01.043Z,98449.00
2023-03-08T05:13:34.045Z,98449.00
2023-03-08T05:16:02.234Z,98448.00
2023-03-08T05:18:30.101Z,98455.00
2023-03-08T05:20:58.597Z,98458.00
2023-03-08T05:23:28.677Z,98456.00
2023-03-08T05:25:58.559Z,98455.00
2023-03-08T05:28:26.792Z,98461.00
2023-03-08T05:31:20.852Z,98454.00
2023-03-08T05:33:51.290Z,98453.00
2023-03-08T05:36:26.047Z,98451.00
2023-03-08T05:38:57.138Z,98451.00
2023-03-08T05:41:31.357Z,98444.00
2023-03-08T05:44:01.290Z,98442.00
2023-03-08T05:46:32.503Z,98442.00
2023-03-08T05:49:03.068Z,98445.00
2023-03-08T05:51:34.193Z,98442.00
2023-03-08T05:54:02.288Z,98438.00
2023-03-08T05:56:32.396Z,98438.00
2023-03-08T05:59:08.972Z,98429.00
2023-03-08T06:01:37.466Z,98437.00
2023-03-08T06:04:15.215Z,98444.00
2023-03-08T06:06:46.433Z,98428.00
2023-03-08T06:09:14.338Z,98431.00
2023-03-08T06:11:43.734Z,98438.00
2023-03-08T06:14:13.167Z,98450.00
2023-03-08T06:16:41.631Z,98449.00
2023-03-08T06:19:09.759Z,98440.00
2023-03-08T06:21:38.865Z,98443.00
2023-03-08T06:24:06.620Z,98459.00
2023-03-08T06:26:34.387Z,98452.00
2023-03-08T06:29:02.246Z,98454.00
2023-03-08T06:31:31.852Z,98456.00
2023-03-08T06:34:00.857Z,98453.00
2023-03-08T06:36:28.984Z,98452.00
2023-03-08T06:38:56.502Z,98460.00
2023-03-08T06:41:25.355Z,98453.00
2023-03-08T06:43:58.094Z,98454.00
2023-03-08T06:46:26.049Z,98452.00
2023-03-08T06:48:56.207Z,98452.00
2023-03-08T06:51:24.968Z,98449.00
2023-03-08T06:53:52.662Z,98445.00
2023-03-08T06:56:23.172Z,98449.00
2023-03-08T06:58:51.022Z,98436.00
2023-03-08T07:01:18.846Z,98430.00
2023-03-08T07:03:49.012Z,98433.00
2023-03-08T07:06:16.692Z,98432.00
2023-03-08T07:08:44.468Z,98437.00
2023-03-08T07:11:12.213Z,98438.00
2023-03-08T07:13:40.080Z,98431.00
2023-03-08T07:16:08.937Z,98441.00
2023-03-08T07:18:36.784Z,98428.00
2023-03-08T07:21:04.620Z,98428.00
2023-03-08T07:23:32.993Z,98429.00
2023-03-08T07:26:00.698Z,98425.00
2023-03-08T07:28:28.377Z,98419.00
2023-03-08T07:30:56.117Z,98424.00
2023-03-08T07:33:23.810Z,98429.00
2023-03-08T07:35:51.486Z,98420.00
2023-03-08T07:38:19.264Z,98422.00
2023-03-08T07:40:46.889Z,98412.00
2023-03-08T07:43:14.616Z,98414.00
2023-03-08T07:46:13.408Z,98410.00
2023-03-08T07:48:41.085Z,98409.00
2023-03-08T07:51:10.410Z,98408.00
2023-03-08T07:53:37.990Z,98401.00
2023-03-08T07:56:05.944Z,98404.00
2023-03-08T07:58:33.497Z,98405.00
2023-03-08T08:01:01.175Z,98397.00
2023-03-08T08:03:29.800Z,98396.00
2023-03-08T08:05:57.678Z,98406.00
2023-03-08T08:08:25.483Z,98395.00
2023-03-08T08:10:53.042Z,98400.00
2023-03-08T08:13:20.811Z,98401.00
2023-03-08T08:15:57.251Z,98400.00
2023-03-08T08:18:25.103Z,98396.00
2023-03-08T08:20:59.736Z,98396.00
2023-03-08T08:23:27.701Z,98389.00
2023-03-08T08:25:56.181Z,98389.00
2023-03-08T08:28:24.270Z,98390.00
2023-03-08T08:30:57.765Z,98377.00
2023-03-08T08:33:25.325Z,98380.00
2023-03-08T08:35:53.037Z,98381.00
2023-03-08T08:38:20.752Z,98379.00
2023-03-08T08:40:51.371Z,98371.00
2023-03-08T08:43:18.997Z,98369.00
2023-03-08T08:45:47.422Z,98369.00
2023-03-08T08:48:15.083Z,98371.00
2023-03-08T08:50:42.969Z,98365.00
2023-03-08T08:53:10.755Z,98363.00
2023-03-08T08:55:41.142Z,98362.00
2023-03-08T08:58:09.286Z,98355.00
2023-03-08T09:00:37.004Z,98358.00
2023-03-08T09:03:05.079Z,98360.00
2023-03-08T09:05:33.207Z,98361.00
2023-03-08T09:08:01.603Z,98356.00
2023-03-08T09:10:30.147Z,98346.00
2023-03-08T09:12:59.189Z,98343.00
2023-03-08T09:15:27.126Z,98346.00
2023-03-08T09:17:54.974Z,98348.00
2023-03-08T09:20:23.697Z,98347.00
2023-03-08T09:22:51.401Z,98345.00
2023-03-08T09:25:21.088Z,98348.00
2023-03-08T09:27:48.968Z,98343.00
2023-03-08T09:30:17.208Z,98340.00
2023-03-08T09:32:44.917Z,98340.00
2023-03-08T09:35:12.707Z,98331.00
2023-03-08T09:37:40.428Z,98328.00
2023-03-08T09:40:11.321Z,98314.00
2023-03-08T09:42:39.010Z,98320.00
2023-03-08T09:45:10.465Z,98319.00
2023-03-08T09:47:54.639Z,98317.00
2023-03-08T09:50:34.016Z,98315.00
2023-03-08T09:53:06.486Z,98312.00
2023-03-08T09:55:34.994Z,98299.00
2023-03-08T09:58:06.502Z,98301.00
2023-03-08T10:00:35.911Z,98287.00
2023-03-08T10:03:22.314Z,98287.00
2023-03-08T10:05:54.588Z,98281.00
2023-03-08T10:08:33.166Z,98279.00
2023-03-08T10:11:02.090Z,98263.00
2023-03-08T10:13:42.537Z,98266.00
2023-03-08T10:16:16.471Z,98261.00
2023-03-08T10:18:55.629Z,98255.00
2023-03-08T10:21:25.358Z,98262.00
2023-03-08T10:23:57.683Z,98248.00
2023-03-08T10:26:26.073Z,98256.00
2023-03-08T10:28:53.758Z,98252.00
2023-03-08T10:31:26.013Z,98243.00
2023-03-08T10:34:02.812Z,98240.00
2023-03-08T10:36:30.472Z,98237.00
2023-03-08T10:39:08.686Z,98231.00
2023-03-08T10:41:43.439Z,98230.00
2023-03-08T10:44:40.200Z,98228.00
2023-03-08T10:47:34.389Z,98218.00
2023-03-08T10:50:13.362Z,98224.00
2023-03-08T10:52:41.753Z,98215.00
2023-03-08T10:55:09.398Z,98199.00
2023-03-08T10:57:37.212Z,98198.00
2023-03-08T11:00:20.506Z,98194.00
2023-03-08T11:02:48.483Z,98201.00
2023-03-08T11:05:20.999Z,98198.00
2023-03-08T11:07:53.063Z,98193.00
2023-03-08T11:10:24.417Z,98191.00
2023-03-08T11:13:02.199Z,98185.00
2023-03-08T11:15:30.609Z,98192.00
2023-03-08T11:18:04.316Z,98188.00
2023-03-08T11:20:34.354Z,98188.00
2023-03-08T11:23:05.236Z,98184.00
2023-03-08T11:25:43.468Z,98182.00
2023-03-08T11:28:33.470Z,98186.00
2023-03-08T11:31:16.545Z,98185.00
2023-03-08T11:33:44.518Z,98186.00
2023-03-08T11:36:24.255Z,98172.00
2023-03-08T11:38:54.728Z,98171.00
2023-03-08T11:41:31.172Z,98176.00
2023-03-08T11:44:05.552Z,98172.00
2023-03-08T11:46:53.542Z,98177.00
2023-03-08T11:49:24.958Z,98181.00
2023-03-08T11:52:25.135Z,98174.00
2023-03-08T11:55:02.069Z,98180.00
2023-03-08T11:57:31.145Z,98181.00
2023-03-08T12:00:06.977Z,98175.00
2023-03-08T12:02:42.425Z,98168.00
2023-03-08T12:05:30.327Z,98178.00
2023-03-08T12:08:02.689Z,98174.00
2023-03-08T12:10:59.676Z,98179.00
2023-03-08T12:13:30.234Z,98182.00
2023-03-08T12:15:58.123Z,98179.00
2023-03-08T12:18:34.987Z,98178.00
2023-03-08T12:21:05.510Z,98179.00
2023-03-08T12:23:37.742Z,98178.00
2023-03-08T12:26:10.740Z,98175.00
2023-03-08T12:28:42.987Z,98171.00
2023-03-08T12:31:27.375Z,98166.00
2023-03-08T12:33:56.716Z,98165.00
2023-03-08T12:36:36.631Z,98182.00
2023-03-08T12:39:08.801Z,98171.00
2023-03-08T12:41:36.757Z,98175.00
2023-03-08T12:44:05.802Z,98168.00
2023-03-08T12:47:01.851Z,98164.00
2023-03-08T12:49:32.342Z,98169.00
2023-03-08T12:52:20.401Z,98170.00
2023-03-08T12:55:00.590Z,98165.00
2023-03-08T12:57:29.329Z,98154.00
2023-03-08T12:59:58.050Z,98138.00
2023-03-08T13:02:35.161Z,98132.00
2023-03-08T13:05:04.219Z,98135.00
2023-03-08T13:07:37.466Z,98141.00
2023-03-08T13:10:17.520Z,98137.00
2023-03-08T13:12:57.530Z,98130.00
2023-03-08T13:15:25.703Z,98134.00
2023-03-08T13:17:57.326Z,98141.00
2023-03-08T13:20:45.385Z,98132.00
2023-03-08T13:23:16.147Z,98141.00
2023-03-08T13:25:43.970Z,98134.00
2023-03-08T13:28:15.544Z,98130.00
2023-03-08T13:30:47.466Z,98131.00
2023-03-08T13:33:19.939Z,98137.00
2023-03-08T13:35:56.942Z,98135.00
2023-03-08T13:38:25.519Z,98138.00
2023-03-08T13:40:56.524Z,98131.00
2023-03-08T13:43:24.796Z,98118.00
2023-03-08T13:45:53.378Z,98115.00
2023-03-08T13:48:21.495Z,98107.00
2023-03-08T13:50:52.785Z,98111.00
2023-03-08T13:53:22.185Z,98117.00
2023-03-08T13:55:51.771Z,98129.00
2023-03-08T13:58:38.944Z,98120.00
2023-03-08T14:01:14.482Z,98117.00
2023-03-08T14:03:42.635Z,98114.00
2023-03-08T14:06:16.660Z,98107.00
2023-03-08T14:08:45.625Z,98108.00
2023-03-08T14:11:17.294Z,98113.00
2023-03-08T14:13:46.136Z,98107.00
2023-03-08T14:16:34.032Z,98099.00
2023-03-08T14:19:12.664Z,98097.00
2023-03-08T14:21:47.242Z,98092.00
2023-03-08T14:24:15.869Z,98091.00
2023-03-08T14:26:53.049Z,98093.00
2023-03-08T14:29:22.155Z,98099.00
2023-03-08T14:32:04.956Z,98097.00
2023-03-08T14:34:36.285Z,98092.00
2023-03-08T14:37:12.311Z,98093.00
2023-03-08T14:39:41.374Z,98081.00
2023-03-08T14:42:25.239Z,98060.00
2023-03-08T14:44:54.084Z,98060.00
2023-03-08T14:47:23.424Z,98056.00
2023-03-08T14:49:59.718Z,98055.00
2023-03-08T14:52:28.115Z,98058.00
2023-03-08T14:54:55.698Z,98062.00
2023-03-08T14:57:24.319Z,98066.00
2023-03-08T14:59:52.089Z,98069.00
2023-03-08T15:02:19.940Z,98062.00
2023-03-08T15:04:47.712Z,98055.00
2023-03-08T15:07:20.323Z,98045.00
2023-03-08T15:09:48.335Z,98039.00
2023-03-08T15:12:16.133Z,98034.00
2023-03-08T15:14:44.014Z,98029.00
2023-03-08T15:17:12.411Z,98025.00
2023-03-08T15:19:40.320Z,98031.00
2023-03-08T15:22:14.029Z,98023.00
2023-03-08T15:24:42.087Z,98016.00
2023-03-08T15:27:13.000Z,98010.00
2023-03-08T15:29:40.694Z,98005.00
2023-03-08T15:32:08.626Z,98002.00
2023-03-08T15:34:36.369Z,98002.00
2023-03-08T15:37:04.194Z,97992.00
2023-03-08T15:39:31.894Z,97987.00
2023-03-08T15:42:00.816Z,97995.00
2023-03-08T15:44:28.504Z,97991.00
2023-03-08T15:46:56.195Z,97997.00
2023-03-08T15:49:23.897Z,97996.00
2023-03-08T15:51:51.653Z,97994.00
2023-03-08T15:54:19.451Z,97993.00
2023-03-08T15:56:47.186Z,97993.00
2023-03-08T15:59:14.891Z,98000.00
2023-03-08T16:01:42.842Z,98003.00
2023-03-08T16:04:11.399Z,97994.00
2023-03-08T16:06:39.096Z,97987.00
2023-03-08T16:09:06.797Z,97986.00
2023-03-08T16:11:34.416Z,97982.00
2023-03-08T16:14:02.194Z,97980.00
2023-03-08T16:16:44.397Z,97975.00
2023-03-08T16:19:13.176Z,97971.00
2023-03-08T16:21:40.865Z,97977.00
2023-03-08T16:24:08.614Z,97977.00
2023-03-08T16:26:36.429Z,97967.00
2023-03-08T16:29:04.649Z,97970.00
2023-03-08T16:31:36.261Z,97968.00
2023-03-08T16:34:04.310Z,97972.00
2023-03-08T16:36:32.722Z,97971.00
2023-03-08T16:39:00.529Z,97986.00
2023-03-08T16:41:30.247Z,97989.00
2023-03-08T16:43:58.302Z,98009.00
2023-03-08T16:46:26.047Z,98006.00
2023-03-08T16:48:55.293Z,98007.00
2023-03-08T16:51:24.426Z,98023.00
2023-03-08T16:53:52.169Z,98030.00
2023-03-08T16:56:20.424Z,98025.00
2023-03-08T16:58:48.397Z,98028.00
2023-03-08T17:01:17.162Z,98031.00
2023-03-08T17:03:44.803Z,98031.00
2023-03-08T17:06:16.253Z,98034.00
2023-03-08T17:08:43.944Z,98021.00
2023-03-08T17:11:15.573Z,98017.00
2023-03-08T17:13:43.848Z,98023.00
2023-03-08T17:16:12.776Z,98029.00
2023-03-08T17:18:40.439Z,98023.00
2023-03-08T17:21:08.131Z,98010.00
2023-03-08T17:23:36.126Z,98008.00
2023-03-08T17:26:04.984Z,98009.00
2023-03-08T17:28:32.767Z,98010.00
2023-03-08T17:31:00.568Z,98001.00
2023-03-08T17:33:28.380Z,98007.00
2023-03-08T17:35:56.796Z,98014.00
2023-03-08T17:38:24.466Z,98016.00
2023-03-08T17:40:52.152Z,98015.00
2023-03-08T17:43:20.229Z,98014.00
2023-03-08T17:45:57.698Z,98015.00
2023-03-08T17:48:25.432Z,98022.00
2023-03-08T17:50:52.972Z,98017.00
2023-03-08T17:53:20.831Z,98016.00
2023-03-08T17:55:48.739Z,98015.00
2023-03-08T17:58:16.675Z,98022.00
2023-03-08T18:00:44.547Z,98031.00
2023-03-08T18:03:12.370Z,98032.00
2023-03-08T18:05:46.773Z,98031.00
2023-03-08T18:08:14.503Z,98028.00
2023-03-08T18:10:42.378Z,98034.00
2023-03-08T18:13:10.398Z,98029.00
2023-03-08T18:15:38.063Z,98025.00
2023-03-08T18:18:05.931Z,98017.00
2023-03-08T18:20:35.310Z,98023.00
2023-03-08T18:23:04.401Z,98005.00
2023-03-08T18:25:32.144Z,98000.00
2023-03-08T18:27:59.860Z,97996.00
2023-03-08T18:30:27.652Z,97992.00
2023-03-08T18:32:55.471Z,97992.00
2023-03-08T18:35:23.136Z,98000.00
2023-03-08T18:37:50.943Z,98007.00
2023-03-08T18:40:20.060Z,98010.00
2023-03-08T18:42:47.917Z,98002.00
2023-03-08T18:45:17.235Z,97990.00
2023-03-08T18:47:48.642Z,97999.00
2023-03-08T18:50:17.057Z,98000.00
2023-03-08T18:52:44.899Z,98003.00
2023-03-08T18:55:13.433Z,98014.00
2023-03-08T18:57:41.255Z,98003.00
2023-03-08T19:00:10.668Z,97993.00
2023-03-08T19:02:41.800Z,97990.00
2023-03-08T19:05:09.790Z,97983.00
2023-03-08T19:07:37.440Z,97994.00
2023-03-08T19:10:05.250Z,97999.00
2023-03-08T19:12:33.917Z,97996.00
2023-03-08T19:15:02.001Z,97992.00
2023-03-08T19:17:29.809Z,97993.00
2023-03-08T19:19:57.722Z,97986.00
2023-03-08T19:22:25.254Z,97984.00
2023-03-08T19:24:55.181Z,97980.00
2023-03-08T19:27:22.890Z,97989.00
2023-03-08T19:29:50.546Z,97992.00
2023-03-08T19:32:18.720Z,97985.00
2023-03-08T19:34:48.557Z,97984.00
2023-03-08T19:37:16.458Z,97987.00
2023-03-08T19:39:44.287Z,97981.00
2023-03-08T19:42:13.974Z,97986.00
2023-03-08T19:44:41.982Z,97982.00
2023-03-08T19:47:10.005Z,97982.00
2023-03-08T19:49:38.948Z,97980.00
2023-03-08T19:52:07.088Z,97982.00
2023-03-08T19:54:34.743Z,97982.00
2023-03-08T19:57:02.790Z,97974.00
2023-03-08T19:59:31.115Z,97972.00
2023-03-08T20:01:59.263Z,97974.00
2023-03-08T20:04:27.352Z,97961.00
2023-03-08T20:06:55.108Z,97965.00
2023-03-08T20:09:23.137Z,97972.00
2023-03-08T20:11:53.410Z,97974.00
2023-03-08T20:14:22.051Z,97963.00
2023-03-08T20:16:51.526Z,97967.00
2023-03-08T20:19:19.325Z,97963.00
2023-03-08T20:21:47.271Z,97967.00
2023-03-08T20:24:23.419Z,97966.00
2023-03-08T20:26:51.264Z,97966.00
2023-03-08T20:29:18.959Z,97964.00
2023-03-08T20:31:48.453Z,97979.00
2023-03-08T20:34:16.806Z,97975.00
2023-03-08T20:36:44.698Z,97972.00
2023-03-08T20:39:12.489Z,97979.00
2023-03-08T20:41:41.013Z,97982.00
2023-03-08T20:44:10.338Z,97982.00
2023-03-08T20:46:38.192Z,97971.00
2023-03-08T20:49:05.996Z,97980.00
2023-03-08T20:51:33.636Z,97981.00
2023-03-08T20:54:01.224Z,97991.00
2023-03-08T20:56:30.264Z,97991.00
2023-03-08T20:59:00.701Z,97993.00
2023-03-08T21:01:29.831Z,97990.00
2023-03-08T21:03:57.476Z,97986.00
2023-03-08T21:06:26.369Z,97975.00
2023-03-08T21:08:54.274Z,97975.00
2023-03-08T21:11:22.237Z,97973.00
2023-03-08T21:13:51.114Z,97965.00
2023-03-08T21:16:19.485Z,97965.00
2023-03-08T21:18:51.039Z,97962.00
2023-03-08T21:21:19.668Z,97981.00
2023-03-08T21:23:47.519Z,97982.00
2023-03-08T21:26:17.810Z,97979.00
2023-03-08T21:28:46.356Z,97977.00
2023-03-08T21:31:17.887Z,97976.00
2023-03-08T21:33:46.450Z,97971.00
2023-03-08T21:36:15.078Z,97965.00
2023-03-08T21:38:44.222Z,97957.00
2023-03-08T21:41:22.055Z,97955.00
2023-03-08T21:43:49.949Z,97946.00
2023-03-08T21:46:18.552Z,97939.00
2023-03-08T21:48:46.575Z,97932.00
2023-03-08T21:51:14.265Z,97929.00
2023-03-08T21:53:42.415Z,97936.00
2023-03-08T21:56:11.092Z,97925.00
2023-03-08T21:58:39.098Z,97924.00
2023-03-08T22:01:07.702Z,97917.00
2023-03-08T22:03:37.741Z,97912.00
2023-03-08T22:06:07.973Z,97917.00
2023-03-08T22:08:38.159Z,97915.00
2023-03-08T22:11:07.855Z,97919.00
2023-03-08T22:13:35.751Z,97908.00
2023-03-08T22:16:04.971Z,97898.00
2023-03-08T22:18:37.237Z,97904.00
2023-03-08T22:21:07.698Z,97896.00
2023-03-08T22:23:37.868Z,97888.00
2023-03-08T22:26:09.363Z,97885.00
2023-03-08T22:28:37.987Z,97890.00
2023-03-08T22:31:10.231Z,97888.00
2023-03-08T22:33:38.283Z,97881.00
2023-03-08T22:36:07.188Z,97883.00
2023-03-08T22:38:35.033Z,97870.00
2023-03-08T22:41:02.821Z,97874.00
2023-03-08T22:43:30.737Z,97864.00
2023-03-08T22:46:05.474Z,97866.00
2023-03-08T22:48:34.911Z,97862.00
2023-03-08T22:51:11.259Z,97865.00
2023-03-08T22:53:40.170Z,97865.00
2023-03-08T22:56:08.851Z,97868.00
2023-03-08T22:58:37.727Z,97863.00
2023-03-08T23:01:11.999Z,97855.00
2023-03-08T23:03:39.952Z,97850.00
2023-03-08T23:06:08.352Z,97851.00
2023-03-08T23:08:36.934Z,97850.00
2023-03-08T23:11:06.626Z,97844.00
2023-03-08T23:13:37.067Z,97848.00
2023-03-08T23:16:08.928Z,97848.00
2023-03-08T23:18:38.233Z,97850.00
2023-03-08T23:21:08.964Z,97848.00
2023-03-08T23:23:38.049Z,97847.00
2023-03-08T23:26:07.963Z,97850.00
2023-03-08T23:28:38.292Z,97852.00
2023-03-08T23:31:13.767Z,97850.00
2023-03-08T23:33:43.614Z,97854.00
2023-03-08T23:36:18.009Z,97844.00
2023-03-08T23:38:46.182Z,97846.00
2023-03-08T23:41:16.832Z,97851.00
2023-03-08T23:43:48.549Z,97852.00
2023-03-08T23:46:18.209Z,97847.00
2023-03-08T23:48:46.386Z,97852.00
2023-03-08T23:51:17.868Z,97849.00
2023-03-08T23:53:45.736Z,97843.00
2023-03-08T23:56:26.763Z,97836.00
2023-03-08T23:58:55.640Z,97835.00
